createdAt,value
2023-05-09T00:01:24.601Z,96283.34
2023-05-09T00:03:52.155Z,96269.63
2023-05-09T00:10:37.922Z,96256.00
2023-05-09T00:13:04.409Z,96276.94
2023-05-09T00:15:31.978Z,96239.66
2023-05-09T00:17:58.707Z,96244.06
2023-05-09T00:20:25.260Z,96265.91
2023-05-09T00:22:52.273Z,96251.41
2023-05-09T00:25:18.748Z,96256.44
2023-05-09T00:27:45.234Z,96258.06
2023-05-09T00:30:11.862Z,96264.75
2023-05-09T00:32:40.166Z,96268.47
2023-05-09T00:35:07.997Z,96256.38
2023-05-09T00:37:34.517Z,96263.56
2023-05-09T00:40:00.946Z,96258.03
2023-05-09T00:42:27.511Z,96258.06
2023-05-09T00:44:54.011Z,96261.28
2023-05-09T00:47:23.043Z,96253.81
2023-05-09T00:49:50.337Z,96247.31
2023-05-09T00:52:17.561Z,96261.56
2023-05-09T00:54:44.027Z,96262.94
2023-05-09T00:57:10.540Z,96251.34
2023-05-09T00:59:37.376Z,96245.59
2023-05-09T01:02:03.832Z,96244.56
2023-05-09T01:04:30.411Z,96226.91
2023-05-09T01:07:16.818Z,96241.69
2023-05-09T01:09:52.355Z,96243.84
2023-05-09T01:12:45.020Z,96232.81
2023-05-09T01:15:17.538Z,96236.22
2023-05-09T01:17:53.655Z,96217.81
2023-05-09T01:20:33.428Z,96221.47
2023-05-09T01:23:38.859Z,96220.44
2023-05-09T01:26:10.601Z,96224.13
2023-05-09T01:28:40.049Z,96227.28
2023-05-09T01:31:08.990Z,96211.25
2023-05-09T01:33:39.581Z,96202.03
2023-05-09T01:36:12.085Z,96222.84
2023-05-09T01:38:42.165Z,96205.22
2023-05-09T01:41:12.043Z,96193.38
2023-05-09T01:43:39.358Z,96220.22
2023-05-09T01:46:07.392Z,96213.91
2023-05-09T01:48:36.749Z,96224.44
2023-05-09T01:51:05.509Z,96204.16
2023-05-09T01:53:34.352Z,96180.72
2023-05-09T01:56:04.001Z,96217.06
2023-05-09T01:58:33.567Z,96213.38
2023-05-09T02:01:01.333Z,96190.50
2023-05-09T02:03:28.606Z,96208.09
2023-05-09T02:05:56.441Z,96193.13
2023-05-09T02:08:23.404Z,96196.00
2023-05-09T02:10:50.487Z,96199.16
2023-05-09T02:13:17.079Z,96168.09
2023-05-09T02:15:44.305Z,96199.72
2023-05-09T02:18:11.008Z,96196.03
2023-05-09T02:20:37.480Z,96189.97
2023-05-09T02:23:04.548Z,96189.16
2023-05-09T02:25:32.174Z,96200.22
2023-05-09T02:28:00.031Z,96187.03
2023-05-09T02:30:27.593Z,96199.69
2023-05-09T02:32:59.809Z,96168.09
2023-05-09T02:35:27.809Z,96182.84
2023-05-09T02:37:55.176Z,96174.97
2023-05-09T02:40:22.619Z,96172.59
2023-05-09T02:42:49.182Z,96137.06
2023-05-09T02:45:15.952Z,96171.78
2023-05-09T02:47:42.846Z,96132.84
2023-05-09T02:50:09.590Z,96155.72
2023-05-09T02:52:37.929Z,96184.69
2023-05-09T02:55:05.079Z,96172.06
2023-05-09T02:57:35.147Z,96167.59
2023-05-09T03:00:01.652Z,96135.19
2023-05-09T03:02:29.211Z,96174.41
2023-05-09T03:04:56.505Z,96172.31
2023-05-09T03:07:22.936Z,96138.06
2023-05-09T03:09:49.407Z,96166.50
2023-05-09T03:12:16.095Z,96169.41
2023-05-09T03:14:42.539Z,96165.19
2023-05-09T03:17:09.523Z,96178.34
2023-05-09T03:19:36.700Z,96144.63
2023-05-09T03:22:03.286Z,96165.94
2023-05-09T03:24:33.640Z,96182.81
2023-05-09T03:27:00.303Z,96178.03
2023-05-09T03:29:27.599Z,96168.06
2023-05-09T03:31:54.095Z,96165.69
2023-05-09T03:34:20.635Z,96150.69
2023-05-09T03:36:47.128Z,96157.00
2023-05-09T03:39:14.635Z,96139.59
2023-05-09T03:41:44.361Z,96169.91
2023-05-09T03:44:12.724Z,96167.53
2023-05-09T03:46:39.238Z,96168.03
2023-05-09T03:49:05.893Z,96159.34
2023-05-09T03:51:32.635Z,96165.38
2023-05-09T03:54:01.290Z,96154.06
2023-05-09T03:56:28.552Z,96156.16
2023-05-09T03:58:55.064Z,96156.44
2023-05-09T04:01:22.066Z,96153.78
2023-05-09T04:03:48.803Z,96154.59
2023-05-09T04:06:15.922Z,96166.97
2023-05-09T04:08:44.358Z,96157.47
2023-05-09T04:11:10.998Z,96162.47
2023-05-09T04:13:40.356Z,96143.53
2023-05-09T04:16:19.917Z,96166.97
2023-05-09T04:18:46.671Z,96173.28
2023-05-09T04:21:13.715Z,96170.66
2023-05-09T04:23:43.543Z,96168.00
2023-05-09T04:26:12.439Z,96174.91
2023-05-09T04:28:39.337Z,96158.31
2023-05-09T04:31:07.036Z,96166.75
2023-05-09T04:33:36.418Z,96163.34
2023-05-09T04:36:04.412Z,96171.81
2023-05-09T04:38:31.429Z,96148.09
2023-05-09T04:40:58.985Z,96152.59
2023-05-09T04:43:27.930Z,96164.66
2023-05-09T04:45:54.464Z,96157.78
2023-05-09T04:48:21.015Z,96153.03
2023-05-09T04:50:49.584Z,96137.72
2023-05-09T04:53:16.033Z,96150.06
2023-05-09T04:55:43.853Z,96159.78
2023-05-09T04:58:11.344Z,96153.97
2023-05-09T05:00:38.212Z,96152.66
2023-05-09T05:03:07.069Z,96166.34
2023-05-09T05:05:36.745Z,96151.63
2023-05-09T05:08:04.172Z,96153.19
2023-05-09T05:10:35.484Z,96145.28
2023-05-09T05:13:06.878Z,96153.69
2023-05-09T05:15:35.072Z,96151.28
2023-05-09T05:18:02.284Z,96157.28
2023-05-09T05:20:33.157Z,96152.28
2023-05-09T05:23:00.453Z,96156.72
2023-05-09T05:25:27.231Z,96139.09
2023-05-09T05:27:55.289Z,96152.94
2023-05-09T05:30:21.985Z,96148.44
2023-05-09T05:32:49.189Z,96129.47
2023-05-09T05:35:19.398Z,96148.31
2023-05-09T05:37:47.637Z,96146.97
2023-05-09T05:40:15.826Z,96139.56
2023-05-09T05:42:46.563Z,96146.88
2023-05-09T05:45:13.267Z,96147.38
2023-05-09T05:47:43.688Z,96145.66
2023-05-09T05:50:12.096Z,96159.81
2023-05-09T05:52:39.726Z,96137.66
2023-05-09T05:55:08.069Z,96157.50
2023-05-09T05:57:35.201Z,96144.53
2023-05-09T06:00:01.808Z,96132.16
2023-05-09T06:02:28.401Z,96129.44
2023-05-09T06:04:56.066Z,96122.97
2023-05-09T06:07:23.584Z,96128.03
2023-05-09T06:09:52.053Z,96105.91
2023-05-09T06:12:18.497Z,96114.66
2023-05-09T06:14:45.106Z,96106.94
2023-05-09T06:17:12.823Z,96098.00
2023-05-09T06:19:39.332Z,96107.81
2023-05-09T06:22:05.796Z,96106.81
2023-05-09T06:24:36.219Z,96098.66
2023-05-09T06:27:04.307Z,96114.25
2023-05-09T06:29:30.983Z,96105.28
2023-05-09T06:31:57.623Z,96113.25
2023-05-09T06:34:24.131Z,96104.09
2023-05-09T06:36:50.776Z,96110.50
2023-05-09T06:39:18.392Z,96112.38
2023-05-09T06:41:45.019Z,96102.19
2023-05-09T06:44:11.456Z,96057.63
2023-05-09T06:46:38.034Z,96081.25
2023-05-09T06:49:06.002Z,96089.22
2023-05-09T06:51:32.629Z,96090.13
2023-05-09T06:53:59.115Z,96093.53
2023-05-09T06:56:26.878Z,96082.75
2023-05-09T06:58:53.833Z,96072.53
2023-05-09T07:01:20.398Z,96091.06
2023-05-09T07:03:47.507Z,96093.44
2023-05-09T07:06:14.080Z,96084.22
2023-05-09T07:08:40.528Z,96091.88
2023-05-09T07:11:07.239Z,96084.22
2023-05-09T07:13:33.718Z,96092.38
2023-05-09T07:16:00.310Z,96071.75
2023-05-09T07:18:26.841Z,96077.44
2023-05-09T07:20:53.394Z,96073.50
2023-05-09T07:23:19.900Z,96075.75
2023-05-09T07:25:46.525Z,96067.78
2023-05-09T07:28:13.177Z,96045.13
2023-05-09T07:30:39.639Z,96071.00
2023-05-09T07:33:06.970Z,96037.47
2023-05-09T07:35:33.455Z,96074.53
2023-05-09T07:38:00.025Z,96058.50
2023-05-09T07:40:26.650Z,96053.97
2023-05-09T07:42:55.170Z,96058.75
2023-05-09T07:45:23.775Z,96060.75
2023-05-09T07:47:50.678Z,96045.84
2023-05-09T07:50:17.427Z,96050.56
2023-05-09T07:52:43.902Z,96048.25
2023-05-09T07:55:12.224Z,96045.03
2023-05-09T07:57:40.059Z,96049.34
2023-05-09T08:00:08.898Z,96039.63
2023-05-09T08:02:39.960Z,96027.06
2023-05-09T08:05:08.032Z,96031.28
2023-05-09T08:07:34.833Z,96032.53
2023-05-09T08:10:01.412Z,96021.19
2023-05-09T08:12:27.858Z,96031.53
2023-05-09T08:14:54.548Z,96022.00
2023-05-09T08:17:21.101Z,96024.06
2023-05-09T08:19:47.575Z,96017.78
2023-05-09T08:22:18.733Z,96011.69
2023-05-09T08:24:46.384Z,96001.97
2023-05-09T08:27:13.975Z,96006.31
2023-05-09T08:29:41.191Z,96008.63
2023-05-09T08:32:08.105Z,96008.00
2023-05-09T08:34:34.960Z,96010.75
2023-05-09T08:37:02.329Z,95998.06
2023-05-09T08:39:28.826Z,95993.06
2023-05-09T08:41:58.797Z,95997.75
2023-05-09T08:44:26.272Z,95974.41
2023-05-09T08:46:56.889Z,95988.94
2023-05-09T08:49:24.135Z,95976.88
2023-05-09T08:51:51.054Z,95985.19
2023-05-09T08:54:20.608Z,95974.09
2023-05-09T08:56:48.011Z,95977.69
2023-05-09T08:59:16.537Z,95965.16
2023-05-09T09:01:43.791Z,95967.84
2023-05-09T09:04:11.944Z,95957.50
2023-05-09T09:06:39.948Z,95934.97
2023-05-09T09:09:08.788Z,95953.44
2023-05-09T09:11:36.804Z,95948.13
2023-05-09T09:14:13.162Z,95948.59
2023-05-09T09:16:41.653Z,95950.78
2023-05-09T09:19:13.051Z,95947.34
2023-05-09T09:21:42.691Z,95946.72
2023-05-09T09:24:13.083Z,95942.34
2023-05-09T09:26:46.503Z,95943.44
2023-05-09T09:29:13.442Z,95938.44
2023-05-09T09:31:44.638Z,95933.09
2023-05-09T09:34:14.654Z,95928.72
2023-05-09T09:36:41.241Z,95911.81
2023-05-09T09:39:09.115Z,95893.00
2023-05-09T09:41:38.001Z,95911.19
2023-05-09T09:44:15.732Z,95914.19
2023-05-09T09:46:53.008Z,95902.97
2023-05-09T09:49:24.477Z,95900.28
2023-05-09T09:51:53.146Z,95908.75
2023-05-09T09:54:19.907Z,95895.41
2023-05-09T09:56:54.995Z,95890.38
2023-05-09T09:59:26.520Z,95860.44
2023-05-09T10:02:07.567Z,95879.84
2023-05-09T10:04:39.251Z,95877.97
2023-05-09T10:07:08.383Z,95880.53
2023-05-09T10:09:35.762Z,95873.28
2023-05-09T10:12:06.699Z,95880.44
2023-05-09T10:14:35.427Z,95864.38
2023-05-09T10:17:04.791Z,95853.44
2023-05-09T10:19:32.938Z,95850.47
2023-05-09T10:22:04.915Z,95853.28
2023-05-09T10:24:51.111Z,95845.09
2023-05-09T10:27:23.013Z,95845.19
2023-05-09T10:29:57.302Z,95842.03
2023-05-09T10:32:29.087Z,95832.91
2023-05-09T10:35:06.933Z,95829.72
2023-05-09T10:37:33.933Z,95830.06
2023-05-09T10:40:04.878Z,95825.50
2023-05-09T10:42:31.903Z,95822.06
2023-05-09T10:44:58.409Z,95826.50
2023-05-09T10:47:29.698Z,95804.00
2023-05-09T10:49:57.507Z,95797.31
2023-05-09T10:52:24.055Z,95805.53
2023-05-09T10:55:05.093Z,95798.13
2023-05-09T10:57:32.667Z,95793.13
2023-05-09T11:00:00.473Z,95794.09
2023-05-09T11:02:30.963Z,95790.66
2023-05-09T11:05:17.660Z,95783.50
2023-05-09T11:07:44.665Z,95771.88
2023-05-09T11:10:16.704Z,95765.88
2023-05-09T11:12:59.623Z,95763.25
2023-05-09T11:15:27.853Z,95759.59
2023-05-09T11:18:08.327Z,95749.94
2023-05-09T11:20:36.042Z,95742.41
2023-05-09T11:23:06.774Z,95739.31
2023-05-09T11:25:33.377Z,95724.63
2023-05-09T11:28:03.016Z,95726.34
2023-05-09T11:30:40.726Z,95732.03
2023-05-09T11:33:24.724Z,95733.25
2023-05-09T11:36:31.735Z,95721.25
2023-05-09T11:39:06.156Z,95719.16
2023-05-09T11:41:39.804Z,95715.47
2023-05-09T11:44:21.296Z,95704.91
2023-05-09T11:46:49.121Z,95711.13
2023-05-09T11:49:15.868Z,95704.84
2023-05-09T11:51:42.661Z,95704.56
2023-05-09T11:54:11.358Z,95708.22
2023-05-09T11:56:42.008Z,95693.78
2023-05-09T11:59:08.688Z,95696.22
2023-05-09T12:01:35.922Z,95678.44
2023-05-09T12:04:02.897Z,95688.97
2023-05-09T12:06:30.000Z,95677.13
2023-05-09T12:08:59.337Z,95674.63
2023-05-09T12:11:25.896Z,95661.09
2023-05-09T12:13:52.922Z,95673.34
2023-05-09T12:16:21.220Z,95669.19
2023-05-09T12:18:49.952Z,95663.69
2023-05-09T12:21:22.868Z,95651.25
2023-05-09T12:23:51.768Z,95655.47
2023-05-09T12:26:22.037Z,95651.69
2023-05-09T12:28:48.927Z,95653.22
2023-05-09T12:31:17.021Z,95634.41
2023-05-09T12:33:43.519Z,95638.88
2023-05-09T12:36:11.468Z,95627.41
2023-05-09T12:38:38.752Z,95636.22
2023-05-09T12:41:22.335Z,95623.25
2023-05-09T12:43:57.081Z,95626.03
2023-05-09T12:46:24.143Z,95613.69
2023-05-09T12:48:51.681Z,95602.22
2023-05-09T12:51:20.398Z,95608.25
2023-05-09T12:53:47.128Z,95605.03
2023-05-09T12:56:18.425Z,95603.06
2023-05-09T12:58:55.067Z,95595.81
2023-05-09T13:01:27.387Z,95592.22
2023-05-09T13:04:02.739Z,95583.66
2023-05-09T13:06:29.347Z,95590.53
2023-05-09T13:09:01.101Z,95590.91
2023-05-09T13:11:28.682Z,95576.38
2023-05-09T13:13:55.675Z,95573.31
2023-05-09T13:16:22.621Z,95566.53
2023-05-09T13:18:49.249Z,95576.53
2023-05-09T13:21:15.914Z,95569.09
2023-05-09T13:23:42.408Z,95553.81
2023-05-09T13:26:10.385Z,95553.53
2023-05-09T13:28:36.958Z,95553.97
2023-05-09T13:31:04.052Z,95554.66
2023-05-09T13:33:30.782Z,95545.38
2023-05-09T13:35:57.331Z,95544.91
2023-05-09T13:38:24.186Z,95544.69
2023-05-09T13:40:50.677Z,95539.84
2023-05-09T13:43:17.151Z,95534.16
2023-05-09T13:45:43.616Z,95532.13
2023-05-09T13:48:11.677Z,95530.38
2023-05-09T13:50:38.222Z,95528.22
2023-05-09T13:53:04.866Z,95524.19
2023-05-09T13:55:31.664Z,95514.22
2023-05-09T13:57:58.266Z,95519.56
2023-05-09T14:00:26.517Z,95512.00
2023-05-09T14:02:53.110Z,95512.00
2023-05-09T14:05:19.784Z,95505.41
2023-05-09T14:07:46.422Z,95503.53
2023-05-09T14:10:12.998Z,95497.97
2023-05-09T14:12:40.717Z,95490.06
2023-05-09T14:15:08.271Z,95494.66
2023-05-09T14:17:34.891Z,95486.25
2023-05-09T14:20:02.019Z,95492.09
2023-05-09T14:22:28.552Z,95493.09
2023-05-09T14:24:58.272Z,95469.28
2023-05-09T14:27:25.119Z,95474.41
2023-05-09T14:29:51.951Z,95472.53
2023-05-09T14:32:18.458Z,95475.75
2023-05-09T14:34:45.642Z,95463.13
2023-05-09T14:37:14.815Z,95460.03
2023-05-09T14:39:42.503Z,95453.47
2023-05-09T14:42:11.374Z,95453.47
2023-05-09T14:44:38.659Z,95454.31
2023-05-09T14:47:05.339Z,95442.50
2023-05-09T14:49:32.441Z,95447.16
2023-05-09T14:51:59.199Z,95440.16
2023-05-09T14:54:26.104Z,95431.22
2023-05-09T14:56:52.690Z,95443.69
2023-05-09T14:59:19.251Z,95424.03
2023-05-09T15:01:46.201Z,95426.22
2023-05-09T15:04:12.868Z,95431.09
2023-05-09T15:06:39.602Z,95426.16
2023-05-09T15:09:06.416Z,95415.09
2023-05-09T15:11:43.716Z,95414.91
2023-05-09T15:14:14.856Z,95422.03
2023-05-09T15:16:41.514Z,95417.88
2023-05-09T15:19:08.287Z,95408.00
2023-05-09T15:21:35.049Z,95407.81
2023-05-09T15:24:02.420Z,95407.47
2023-05-09T15:26:29.388Z,95408.31
2023-05-09T15:28:55.908Z,95404.03
2023-05-09T15:31:24.032Z,95405.84
2023-05-09T15:33:50.693Z,95389.59
2023-05-09T15:36:17.211Z,95395.59
2023-05-09T15:38:46.205Z,95392.28
2023-05-09T15:41:12.848Z,95397.56
2023-05-09T15:43:39.408Z,95397.56
2023-05-09T15:46:06.010Z,95396.44
2023-05-09T15:48:32.636Z,95393.31
2023-05-09T15:50:59.111Z,95389.41
2023-05-09T15:53:27.515Z,95394.88
2023-05-09T15:55:54.101Z,95386.31
2023-05-09T15:58:20.678Z,95377.16
2023-05-09T16:00:47.636Z,95376.44
2023-05-09T16:03:14.158Z,95369.03
2023-05-09T16:05:41.078Z,95374.81
2023-05-09T16:08:07.683Z,95366.03
2023-05-09T16:10:34.233Z,95356.63
2023-05-09T16:13:00.915Z,95366.16
2023-05-09T16:15:27.578Z,95359.34
2023-05-09T16:17:54.185Z,95354.34
2023-05-09T16:20:20.802Z,95353.63
2023-05-09T16:22:47.432Z,95355.06
2023-05-09T16:25:14.066Z,95356.06
2023-05-09T16:27:40.702Z,95350.53
2023-05-09T16:30:07.871Z,95347.53
2023-05-09T16:32:34.428Z,95339.69
2023-05-09T16:35:00.945Z,95325.69
2023-05-09T16:37:29.737Z,95337.72
2023-05-09T16:39:56.471Z,95326.19
2023-05-09T16:42:23.110Z,95323.59
2023-05-09T16:44:49.595Z,95319.53
2023-05-09T16:47:16.130Z,95320.41
2023-05-09T16:49:42.680Z,95304.72
2023-05-09T16:52:09.471Z,95310.25
2023-05-09T16:54:35.974Z,95304.13
2023-05-09T16:57:03.281Z,95301.28
2023-05-09T16:59:29.780Z,95288.47
2023-05-09T17:01:57.616Z,95300.97
2023-05-09T17:04:25.283Z,95296.47
2023-05-09T17:06:53.301Z,95295.88
2023-05-09T17:09:19.833Z,95297.81
2023-05-09T17:11:46.444Z,95286.59
2023-05-09T17:14:12.990Z,95293.06
2023-05-09T17:16:39.564Z,95297.63
2023-05-09T17:19:06.244Z,95288.28
2023-05-09T17:21:32.897Z,95286.50
2023-05-09T17:23:59.365Z,95284.84
2023-05-09T17:26:25.989Z,95281.88
2023-05-09T17:28:52.539Z,95284.28
2023-05-09T17:31:19.167Z,95281.50
2023-05-09T17:33:45.795Z,95277.91
2023-05-09T17:36:12.294Z,95271.03
2023-05-09T17:38:38.815Z,95270.59
2023-05-09T17:41:05.784Z,95272.69
2023-05-09T17:43:32.430Z,95273.13
2023-05-09T17:45:59.164Z,95252.59
2023-05-09T17:48:26.247Z,95259.44
2023-05-09T17:50:52.736Z,95259.59
2023-05-09T17:53:19.285Z,95251.16
2023-05-09T17:55:45.805Z,95257.19
2023-05-09T17:58:12.408Z,95256.19
2023-05-09T18:00:38.921Z,95243.75
2023-05-09T18:03:07.367Z,95248.47
2023-05-09T18:05:34.052Z,95239.53
2023-05-09T18:08:01.301Z,95237.88
2023-05-09T18:10:28.761Z,95240.41
2023-05-09T18:12:55.426Z,95241.16
2023-05-09T18:15:22.008Z,95240.75
2023-05-09T18:17:49.293Z,95234.88
2023-05-09T18:20:16.745Z,95235.91
2023-05-09T18:22:43.396Z,95231.28
2023-05-09T18:25:10.365Z,95232.31
2023-05-09T18:27:36.896Z,95229.81
2023-05-09T18:30:03.769Z,95222.31
2023-05-09T18:32:30.290Z,95220.56
2023-05-09T18:34:56.856Z,95226.72
2023-05-09T18:37:24.684Z,95216.53
2023-05-09T18:39:51.446Z,95213.09
2023-05-09T18:42:18.193Z,95215.50
2023-05-09T18:44:44.830Z,95214.63
2023-05-09T18:47:11.951Z,95215.22
2023-05-09T18:49:38.890Z,95213.25
2023-05-09T18:52:05.429Z,95210.75
2023-05-09T18:54:31.960Z,95224.53
2023-05-09T18:56:58.495Z,95224.00
2023-05-09T18:59:25.025Z,95212.81
2023-05-09T19:01:51.849Z,95212.41
2023-05-09T19:04:19.669Z,95225.91
2023-05-09T19:06:46.973Z,95226.53
2023-05-09T19:09:13.678Z,95223.50
2023-05-09T19:11:40.216Z,95221.31
2023-05-09T19:14:07.114Z,95232.69
2023-05-09T19:16:33.713Z,95228.63
2023-05-09T19:19:00.999Z,95227.31
2023-05-09T19:21:28.348Z,95225.69
2023-05-09T19:23:54.957Z,95225.69
2023-05-09T19:26:22.059Z,95229.03
2023-05-09T19:28:48.668Z,95234.03
2023-05-09T19:31:15.633Z,95232.38
2023-05-09T19:33:45.505Z,95231.50
2023-05-09T19:36:12.797Z,95230.16
2023-05-09T19:38:39.491Z,95232.84
2023-05-09T19:41:05.997Z,95226.88
2023-05-09T19:43:32.562Z,95237.09
2023-05-09T19:45:59.939Z,95224.34
2023-05-09T19:48:26.653Z,95225.13
2023-05-09T19:50:57.547Z,95231.69
2023-05-09T19:53:24.673Z,95224.25
2023-05-09T19:55:51.704Z,95231.81
2023-05-09T19:58:18.403Z,95240.44
2023-05-09T20:00:45.301Z,95228.06
2023-05-09T20:03:12.046Z,95238.47
2023-05-09T20:05:38.602Z,95236.38
2023-05-09T20:08:05.184Z,95241.69
2023-05-09T20:10:32.968Z,95236.94
2023-05-09T20:13:00.885Z,95236.63
2023-05-09T20:15:27.899Z,95241.16
2023-05-09T20:17:54.737Z,95238.06
2023-05-09T20:20:21.475Z,95241.81
2023-05-09T20:22:48.124Z,95218.88
2023-05-09T20:25:15.301Z,95244.06
2023-05-09T20:27:42.066Z,95249.25
2023-05-09T20:30:09.022Z,95252.25
2023-05-09T20:32:35.527Z,95262.69
2023-05-09T20:35:02.333Z,95260.69
2023-05-09T20:37:28.829Z,95260.13
2023-05-09T20:39:55.623Z,95265.34
2023-05-09T20:42:23.230Z,95281.28
2023-05-09T20:44:51.480Z,95305.91
2023-05-09T20:47:18.072Z,95328.78
2023-05-09T20:49:44.528Z,95337.06
2023-05-09T20:52:11.557Z,95336.41
2023-05-09T20:54:38.560Z,95331.00
2023-05-09T20:57:05.164Z,95325.66
2023-05-09T20:59:31.670Z,95336.22
2023-05-09T21:01:58.213Z,95333.44
2023-05-09T21:04:24.971Z,95332.63
2023-05-09T21:06:51.556Z,95336.22
2023-05-09T21:09:18.495Z,95345.75
2023-05-09T21:11:45.739Z,95336.94
2023-05-09T21:14:12.225Z,95353.84
2023-05-09T21:16:38.774Z,95357.78
2023-05-09T21:19:06.592Z,95360.84
2023-05-09T21:21:33.178Z,95342.84
2023-05-09T21:24:04.299Z,95363.94
2023-05-09T21:26:30.862Z,95358.63
2023-05-09T21:28:57.376Z,95366.88
2023-05-09T21:31:24.020Z,95365.94
2023-05-09T21:33:50.789Z,95363.34
2023-05-09T21:36:17.328Z,95349.78
2023-05-09T21:38:43.801Z,95363.91
2023-05-09T21:41:10.484Z,95371.94
2023-05-09T21:43:37.713Z,95376.50
2023-05-09T21:46:05.509Z,95381.78
2023-05-09T21:48:32.227Z,95381.56
2023-05-09T21:51:02.975Z,95365.69
2023-05-09T21:53:29.595Z,95364.31
2023-05-09T21:55:56.091Z,95369.34
2023-05-09T21:58:22.552Z,95367.16
2023-05-09T22:00:49.099Z,95371.72
2023-05-09T22:03:15.824Z,95367.41
2023-05-09T22:05:42.586Z,95371.34
2023-05-09T22:08:09.247Z,95374.84
2023-05-09T22:10:37.425Z,95385.44
2023-05-09T22:13:03.984Z,95381.97
2023-05-09T22:15:30.603Z,95379.50
2023-05-09T22:17:57.194Z,95365.31
2023-05-09T22:20:23.964Z,95377.31
2023-05-09T22:22:50.529Z,95365.66
2023-05-09T22:25:17.138Z,95378.25
2023-05-09T22:27:43.672Z,95377.59
2023-05-09T22:30:12.349Z,95386.84
2023-05-09T22:32:39.619Z,95381.38
2023-05-09T22:35:06.876Z,95381.69
2023-05-09T22:37:33.454Z,95376.22
2023-05-09T22:40:01.457Z,95378.72
2023-05-09T22:42:29.363Z,95373.88
2023-05-09T22:44:56.155Z,95365.00
2023-05-09T22:47:22.781Z,95358.59
2023-05-09T22:49:50.362Z,95368.28
2023-05-09T22:52:17.125Z,95365.19
2023-05-09T22:54:43.790Z,95367.81
2023-05-09T22:57:10.732Z,95371.22
2023-05-09T22:59:37.349Z,95368.56
2023-05-09T23:02:04.804Z,95359.69
2023-05-09T23:04:32.563Z,95362.34
2023-05-09T23:06:59.098Z,95353.03
2023-05-09T23:09:25.818Z,95364.25
2023-05-09T23:11:52.323Z,95366.13
2023-05-09T23:14:18.892Z,95361.28
2023-05-09T23:16:45.402Z,95354.25
2023-05-09T23:19:11.942Z,95359.09
2023-05-09T23:21:38.541Z,95354.56
2023-05-09T23:24:05.246Z,95348.03
2023-05-09T23:26:32.287Z,95349.88
2023-05-09T23:28:58.761Z,95356.63
2023-05-09T23:31:25.438Z,95353.47
2023-05-09T23:33:52.328Z,95352.06
2023-05-09T23:36:18.917Z,95352.88
2023-05-09T23:38:45.417Z,95344.44
2023-05-09T23:41:12.824Z,95337.91
2023-05-09T23:43:39.477Z,95322.13
2023-05-09T23:46:06.044Z,95342.88
2023-05-09T23:48:32.632Z,95338.19
2023-05-09T23:50:59.095Z,95343.03
2023-05-09T23:53:26.122Z,95343.59
2023-05-09T23:55:52.621Z,95335.53
2023-05-09T23:58:19.076Z,95342.09
